createdAt,value
2018-09-28T00:01:17.659Z,10.00
2018-09-28T00:03:46.171Z,9.53
2018-09-28T00:11:10.306Z,9.40
2018-09-28T00:13:38.855Z,9.70
2018-09-28T00:16:08.238Z,9.63
2018-09-28T00:18:37.986Z,10.53
2018-09-28T00:21:06.840Z,12.13
2018-09-28T00:23:35.470Z,12.40
2018-09-28T00:26:04.134Z,13.53
2018-09-28T00:28:32.581Z,12.07
2018-09-28T00:31:01.055Z,12.53
2018-09-28T00:33:31.412Z,10.10
2018-09-28T00:36:00.030Z,10.80
2018-09-28T00:38:28.506Z,11.47
2018-09-28T00:40:57.265Z,11.07
2018-09-28T00:43:25.823Z,10.80
2018-09-28T00:45:54.372Z,10.90
2018-09-28T00:48:22.915Z,10.93
2018-09-28T00:50:52.227Z,10.07
2018-09-28T00:53:20.706Z,11.12
2018-09-28T00:55:49.214Z,12.80
2018-09-28T00:58:17.747Z,12.23
2018-09-28T01:00:46.262Z,14.00
2018-09-28T01:08:13.961Z,13.07
2018-09-28T01:10:42.458Z,10.70
2018-09-28T01:13:10.954Z,10.97
2018-09-28T01:15:39.451Z,8.80
2018-09-28T01:18:07.910Z,9.37
2018-09-28T01:20:36.444Z,10.10
2018-09-28T01:23:04.969Z,10.50
2018-09-28T01:25:33.479Z,9.75
2018-09-28T01:28:01.950Z,9.70
2018-09-28T01:30:31.299Z,9.80
2018-09-28T01:32:59.797Z,9.83
2018-09-28T01:35:29.166Z,9.77
2018-09-28T01:37:57.662Z,9.03
2018-09-28T01:40:26.155Z,9.57
2018-09-28T01:42:54.627Z,9.20
2018-09-28T01:45:23.162Z,9.68
2018-09-28T01:47:51.686Z,9.35
2018-09-28T01:50:20.214Z,9.50
2018-09-28T01:52:48.734Z,9.47
2018-09-28T01:55:17.470Z,9.20
2018-09-28T01:57:45.933Z,8.80
2018-09-28T02:05:12.074Z,9.77
2018-09-28T02:07:40.616Z,9.60
2018-09-28T02:10:09.122Z,10.23
2018-09-28T02:12:38.476Z,10.60
2018-09-28T02:15:06.899Z,10.23
2018-09-28T02:17:35.438Z,10.03
2018-09-28T02:20:04.638Z,8.90
2018-09-28T02:22:33.378Z,10.73
2018-09-28T02:25:01.869Z,11.47
2018-09-28T02:27:30.370Z,11.68
2018-09-28T02:29:59.003Z,11.67
2018-09-28T02:32:27.558Z,12.17
2018-09-28T02:34:56.407Z,11.30
2018-09-28T02:37:25.662Z,11.70
2018-09-28T02:39:54.143Z,10.63
2018-09-28T02:42:22.672Z,10.18
2018-09-28T02:44:51.161Z,9.90
2018-09-28T02:47:19.654Z,10.53
2018-09-28T02:49:48.154Z,10.70
2018-09-28T02:52:17.463Z,8.25
2018-09-28T02:54:45.941Z,8.87
2018-09-28T03:02:21.198Z,17.87
2018-09-28T03:04:49.735Z,23.93
2018-09-28T03:07:18.215Z,17.93
2018-09-28T03:09:47.432Z,13.27
2018-09-28T03:17:09.047Z,10.50
2018-09-28T03:19:37.664Z,9.93
2018-09-28T03:22:06.206Z,9.40
2018-09-28T03:24:34.986Z,9.00
2018-09-28T03:27:03.563Z,8.23
2018-09-28T03:29:32.094Z,9.07
2018-09-28T03:32:00.617Z,8.75
2018-09-28T03:34:30.085Z,8.40
2018-09-28T03:36:58.566Z,9.33
2018-09-28T03:39:27.718Z,8.90
2018-09-28T03:41:56.209Z,7.97
2018-09-28T03:44:24.689Z,8.80
2018-09-28T03:46:53.606Z,7.90
2018-09-28T03:49:22.089Z,8.33
2018-09-28T03:51:50.561Z,8.70
2018-09-28T03:54:19.052Z,8.40
2018-09-28T03:56:47.525Z,9.93
2018-09-28T03:59:17.334Z,9.63
2018-09-28T04:01:45.857Z,10.90
2018-09-28T04:09:14.017Z,11.80
2018-09-28T04:11:42.506Z,12.80
2018-09-28T04:14:10.999Z,12.40
2018-09-28T04:16:39.526Z,10.80
2018-09-28T04:19:08.026Z,11.20
2018-09-28T04:21:36.546Z,10.77
2018-09-28T04:24:05.202Z,9.40
2018-09-28T04:26:33.725Z,9.93
2018-09-28T04:29:02.257Z,10.20
2018-09-28T04:31:31.109Z,9.90
2018-09-28T04:33:59.662Z,9.53
2018-09-28T04:36:28.229Z,9.50
2018-09-28T04:38:56.806Z,7.87
2018-09-28T04:41:25.918Z,8.70
2018-09-28T04:43:54.442Z,9.20
2018-09-28T04:46:23.260Z,9.07
2018-09-28T04:48:52.194Z,8.27
2018-09-28T04:51:20.983Z,8.28
2018-09-28T04:53:50.662Z,8.70
2018-09-28T04:56:19.145Z,8.23
2018-09-28T04:58:47.755Z,8.70
2018-09-28T05:06:11.242Z,7.37
2018-09-28T05:08:39.763Z,7.37
2018-09-28T05:11:08.270Z,7.60
2018-09-28T05:13:37.248Z,8.50
2018-09-28T05:16:05.739Z,8.80
2018-09-28T05:18:34.445Z,9.25
2018-09-28T05:21:03.130Z,9.23
2018-09-28T05:23:31.670Z,9.47
2018-09-28T05:26:00.155Z,10.47
2018-09-28T05:28:28.662Z,11.65
2018-09-28T05:30:57.179Z,11.40
2018-09-28T05:33:25.727Z,11.43
2018-09-28T05:35:54.308Z,11.63
2018-09-28T05:38:22.827Z,10.00
2018-09-28T05:40:51.638Z,10.40
2018-09-28T05:43:20.966Z,9.80
2018-09-28T05:45:49.478Z,10.98
2018-09-28T05:48:17.954Z,10.80
2018-09-28T05:50:46.454Z,10.28
2018-09-28T05:58:16.702Z,9.97
2018-09-28T06:00:50.474Z,9.10
2018-09-28T06:03:20.332Z,9.63
2018-09-28T06:05:54.080Z,10.30
2018-09-28T06:08:22.638Z,9.30
2018-09-28T06:10:51.120Z,9.00
2018-09-28T06:13:20.994Z,9.20
2018-09-28T06:15:50.138Z,8.95
2018-09-28T06:18:18.654Z,9.20
2018-09-28T06:20:49.463Z,8.67
2018-09-28T06:23:17.993Z,9.10
2018-09-28T06:25:47.559Z,9.33
2018-09-28T06:28:17.414Z,9.25
2018-09-28T06:30:45.921Z,9.10
2018-09-28T06:43:09.323Z,8.83
2018-09-28T06:45:38.970Z,10.00
2018-09-28T06:48:07.593Z,9.93
2018-09-28T06:50:36.066Z,10.70
2018-09-28T06:53:04.598Z,10.47
2018-09-28T06:55:33.102Z,10.23
2018-09-28T06:58:01.641Z,10.83
2018-09-28T07:00:30.137Z,10.47
2018-09-28T07:02:58.712Z,12.43
2018-09-28T07:05:27.359Z,11.87
2018-09-28T07:07:56.126Z,12.40
2018-09-28T07:10:24.601Z,12.17
2018-09-28T07:12:53.375Z,10.23
2018-09-28T07:15:21.900Z,10.03
2018-09-28T07:17:50.535Z,9.90
2018-09-28T07:20:19.056Z,9.90
2018-09-28T07:22:47.685Z,9.97
2018-09-28T07:30:11.878Z,8.80
2018-09-28T07:32:40.397Z,9.53
2018-09-28T07:35:08.954Z,9.17
2018-09-28T07:37:37.474Z,8.30
2018-09-28T07:40:06.018Z,10.37
2018-09-28T07:42:34.530Z,8.73
2018-09-28T07:45:03.086Z,8.77
2018-09-28T07:47:33.432Z,9.10
2018-09-28T07:50:01.934Z,8.10
2018-09-28T07:52:30.562Z,8.80
2018-09-28T07:54:59.080Z,8.70
2018-09-28T07:57:27.588Z,8.67
2018-09-28T07:59:56.104Z,7.90
2018-09-28T08:02:24.590Z,9.37
2018-09-28T08:04:53.100Z,9.00
2018-09-28T08:07:21.650Z,8.90
2018-09-28T08:09:50.273Z,8.50
2018-09-28T08:12:18.762Z,8.00
2018-09-28T08:14:48.078Z,9.37
2018-09-28T08:17:17.386Z,8.60
2018-09-28T08:19:45.914Z,9.17
2018-09-28T08:22:15.612Z,8.25
2018-09-28T08:24:44.341Z,8.23
2018-09-28T08:27:12.710Z,8.43
2018-09-28T08:29:41.255Z,7.90
2018-09-28T08:32:09.428Z,7.90
2018-09-28T08:34:38.231Z,8.23
2018-09-28T08:37:07.113Z,7.70
2018-09-28T08:39:35.606Z,6.67
2018-09-28T08:42:04.214Z,6.63
2018-09-28T08:44:32.793Z,7.10
2018-09-28T08:47:01.295Z,6.80
2018-09-28T08:49:30.670Z,6.37
2018-09-28T08:52:00.127Z,6.50
2018-09-28T08:54:28.613Z,6.77
2018-09-28T08:56:57.262Z,7.40
2018-09-28T08:59:26.692Z,6.67
2018-09-28T09:01:55.191Z,6.60
2018-09-28T09:04:23.735Z,6.47
2018-09-28T09:06:52.291Z,6.83
2018-09-28T09:09:20.780Z,6.62
2018-09-28T09:11:49.263Z,6.07
2018-09-28T09:14:17.768Z,6.10
2018-09-28T09:16:46.300Z,6.27
2018-09-28T09:24:17.555Z,5.97
2018-09-28T09:26:46.139Z,6.33
2018-09-28T09:34:15.625Z,6.97
2018-09-28T09:36:44.127Z,6.43
2018-09-28T09:39:13.127Z,6.50
2018-09-28T09:41:42.078Z,6.40
2018-09-28T09:44:10.608Z,6.80
2018-09-28T09:46:39.394Z,6.93
2018-09-28T09:49:07.942Z,7.20
2018-09-28T09:51:37.071Z,8.00
2018-09-28T09:54:05.565Z,8.57
2018-09-28T09:56:34.073Z,8.95
2018-09-28T09:59:02.582Z,7.90
2018-09-28T10:03:42.919Z,9.48
2018-09-28T10:06:11.389Z,8.13
2018-09-28T10:08:39.865Z,8.40
2018-09-28T10:11:08.365Z,8.67
2018-09-28T10:13:36.831Z,8.30
2018-09-28T10:16:05.308Z,8.80
2018-09-28T10:18:33.816Z,8.68
2018-09-28T10:21:02.289Z,9.30
2018-09-28T10:23:30.778Z,9.30
2018-09-28T10:25:59.743Z,8.17
2018-09-28T10:28:28.314Z,7.80
2018-09-28T10:30:56.805Z,8.23
2018-09-28T10:33:25.360Z,8.80
2018-09-28T10:35:53.869Z,7.90
2018-09-28T10:38:22.377Z,8.43
2018-09-28T10:40:50.945Z,8.20
2018-09-28T10:43:19.971Z,8.48
2018-09-28T10:45:48.474Z,8.20
2018-09-28T10:48:18.216Z,7.70
2018-09-28T10:50:46.757Z,8.37
2018-09-28T10:58:12.021Z,5.33
2018-09-28T11:00:40.509Z,5.40
2018-09-28T11:03:09.084Z,5.10
2018-09-28T11:05:37.714Z,5.00
2018-09-28T11:08:06.232Z,5.30
2018-09-28T11:10:41.177Z,4.87
2018-09-28T11:13:09.626Z,3.63
2018-09-28T11:15:38.632Z,4.53
2018-09-28T11:18:07.089Z,5.07
2018-09-28T11:20:35.564Z,5.20
2018-09-28T11:23:04.026Z,5.47
2018-09-28T11:25:33.206Z,4.42
2018-09-28T11:28:01.715Z,5.73
2018-09-28T11:30:30.282Z,5.60
2018-09-28T11:32:58.827Z,4.80
2018-09-28T11:35:27.544Z,5.20
2018-09-28T11:37:56.095Z,5.17
2018-09-28T11:40:24.898Z,5.30
2018-09-28T11:42:53.378Z,5.12
2018-09-28T11:45:21.993Z,5.50
2018-09-28T11:47:51.166Z,5.85
2018-09-28T11:50:19.637Z,5.33
2018-09-28T11:52:48.147Z,6.40
2018-09-28T11:55:18.483Z,6.58
2018-09-28T11:57:47.008Z,6.47
2018-09-28T12:05:15.931Z,6.27
2018-09-28T12:07:44.414Z,6.60
2018-09-28T12:10:12.997Z,6.90
2018-09-28T12:12:41.600Z,6.90
2018-09-28T12:15:10.071Z,7.23
2018-09-28T12:17:38.596Z,7.80
2018-09-28T12:20:08.331Z,7.43
2018-09-28T12:22:36.959Z,5.73
2018-09-28T12:25:05.772Z,6.60
2018-09-28T12:27:35.210Z,7.28
2018-09-28T12:30:03.720Z,7.03
2018-09-28T12:32:32.217Z,6.50
2018-09-28T12:35:01.854Z,6.93
2018-09-28T12:37:30.475Z,7.33
2018-09-28T12:39:59.007Z,6.10
2018-09-28T12:42:27.654Z,6.37
2018-09-28T12:44:56.163Z,5.80
2018-09-28T12:47:24.650Z,5.73
2018-09-28T12:49:53.475Z,6.07
2018-09-28T12:52:22.026Z,6.03
2018-09-28T12:54:52.456Z,6.20
2018-09-28T12:57:21.863Z,6.72
2018-09-28T12:59:50.390Z,6.23
2018-09-28T13:02:18.999Z,6.13
2018-09-28T13:04:47.549Z,6.80
2018-09-28T13:07:17.447Z,5.92
2018-09-28T13:09:46.083Z,6.30
2018-09-28T13:17:15.022Z,6.50
2018-09-28T13:19:43.626Z,6.00
2018-09-28T13:22:12.183Z,6.87
2018-09-28T13:24:40.849Z,6.53
2018-09-28T13:27:09.439Z,6.40
2018-09-28T13:29:40.690Z,5.53
2018-09-28T13:32:09.514Z,6.40
2018-09-28T13:34:38.621Z,5.47
2018-09-28T13:37:07.394Z,6.23
2018-09-28T13:39:36.506Z,5.43
2018-09-28T13:42:05.015Z,5.17
2018-09-28T13:44:33.543Z,5.60
2018-09-28T13:47:02.231Z,5.60
2018-09-28T13:49:30.823Z,5.17
2018-09-28T13:51:59.324Z,4.87
2018-09-28T13:54:27.996Z,5.70
2018-09-28T13:56:56.446Z,5.20
2018-09-28T13:59:25.907Z,6.00
2018-09-28T14:01:54.524Z,5.20
2018-09-28T14:04:23.095Z,5.20
2018-09-28T14:06:51.708Z,6.20
2018-09-28T14:09:20.286Z,5.23
2018-09-28T14:11:48.799Z,4.90
2018-09-28T14:14:17.481Z,6.13
2018-09-28T14:16:46.107Z,5.27
2018-09-28T14:24:10.694Z,5.30
2018-09-28T14:26:39.175Z,5.80
2018-09-28T14:29:07.769Z,6.20
2018-09-28T14:31:36.267Z,5.20
2018-09-28T14:34:04.807Z,5.50
2018-09-28T14:36:33.323Z,5.50
2018-09-28T14:39:01.896Z,5.30
2018-09-28T14:41:30.403Z,5.60
2018-09-28T14:43:58.913Z,5.60
2018-09-28T14:46:27.581Z,5.30
2018-09-28T14:48:56.270Z,5.23
2018-09-28T14:51:24.585Z,5.53
2018-09-28T14:53:53.079Z,5.13
2018-09-28T14:56:22.359Z,4.93
2018-09-28T14:58:50.878Z,5.37
2018-09-28T15:01:20.376Z,5.77
2018-09-28T15:03:48.838Z,4.80
2018-09-28T15:06:17.722Z,4.90
2018-09-28T15:08:46.348Z,5.00
2018-09-28T15:16:14.961Z,5.37
2018-09-28T15:18:43.490Z,5.37
2018-09-28T15:21:12.115Z,4.60
2018-09-28T15:23:40.696Z,5.23
2018-09-28T15:26:09.218Z,4.33
2018-09-28T15:28:37.827Z,4.60
2018-09-28T15:31:06.621Z,4.70
2018-09-28T15:33:35.178Z,11.23
2018-09-28T15:36:03.695Z,5.30
2018-09-28T15:38:32.896Z,5.27
2018-09-28T15:41:01.407Z,5.67
2018-09-28T15:43:29.893Z,8.40
2018-09-28T15:45:58.401Z,5.73
2018-09-28T15:48:26.892Z,5.67
2018-09-28T15:50:55.435Z,7.17
2018-09-28T15:53:24.038Z,10.23
2018-09-28T15:55:52.635Z,5.93
2018-09-28T15:58:21.151Z,5.12
2018-09-28T16:00:49.992Z,5.40
2018-09-28T16:03:18.963Z,5.37
2018-09-28T16:05:47.529Z,5.50
2018-09-28T16:13:09.313Z,5.20
2018-09-28T16:15:37.810Z,5.30
2018-09-28T16:18:06.327Z,4.87
2018-09-28T16:20:34.838Z,4.93
2018-09-28T16:23:03.386Z,5.00
2018-09-28T16:25:31.894Z,5.80
2018-09-28T16:28:00.444Z,5.70
2018-09-28T16:30:28.921Z,5.00
2018-09-28T16:32:58.406Z,4.65
2018-09-28T16:35:26.969Z,4.90
2018-09-28T16:37:55.474Z,5.25
2018-09-28T16:40:24.005Z,6.07
2018-09-28T16:42:52.568Z,5.65
2018-09-28T16:45:21.070Z,5.37
2018-09-28T16:47:49.556Z,5.70
2018-09-28T16:50:18.069Z,5.77
2018-09-28T16:52:46.578Z,5.67
2018-09-28T16:57:27.346Z,6.08
2018-09-28T16:59:55.889Z,5.80
2018-09-28T17:02:24.403Z,5.62
2018-09-28T17:04:53.828Z,6.70
2018-09-28T17:07:22.322Z,6.30
2018-09-28T17:09:50.791Z,6.57
2018-09-28T17:12:19.545Z,7.47
2018-09-28T17:14:48.084Z,7.13
2018-09-28T17:17:17.419Z,7.87
2018-09-28T17:19:45.974Z,8.00
2018-09-28T17:27:14.329Z,9.03
2018-09-28T17:29:42.860Z,8.73
2018-09-28T17:32:11.411Z,9.23
2018-09-28T17:34:40.119Z,8.27
2018-09-28T17:37:08.759Z,9.40
2018-09-28T17:39:37.392Z,9.70
2018-09-28T17:42:06.596Z,11.37
2018-09-28T17:44:35.137Z,9.40
2018-09-28T17:47:03.602Z,8.63
2018-09-28T17:49:32.119Z,9.87
2018-09-28T17:52:00.626Z,8.93
2018-09-28T17:54:29.694Z,8.73
2018-09-28T17:56:58.226Z,9.00
2018-09-28T17:59:26.796Z,10.67
2018-09-28T18:01:55.307Z,9.77
2018-09-28T18:04:24.196Z,9.85
2018-09-28T18:06:53.571Z,10.07
2018-09-28T18:09:22.072Z,8.90
2018-09-28T18:11:50.588Z,10.13
2018-09-28T18:14:19.827Z,10.00
2018-09-28T18:16:48.310Z,10.70
2018-09-28T18:19:17.451Z,9.57
2018-09-28T18:21:45.975Z,9.87
2018-09-28T18:29:13.372Z,11.07
2018-09-28T18:31:42.023Z,11.37
2018-09-28T18:34:10.921Z,11.53
2018-09-28T18:36:39.450Z,11.00
2018-09-28T18:39:08.932Z,11.77
2018-09-28T18:41:37.649Z,12.60
2018-09-28T18:44:06.270Z,11.83
2018-09-28T18:46:35.407Z,11.47
2018-09-28T18:49:03.921Z,10.90
2018-09-28T18:51:32.461Z,11.85
2018-09-28T18:54:01.894Z,11.17
2018-09-28T18:56:30.383Z,11.53
2018-09-28T18:58:58.906Z,10.40
2018-09-28T19:01:27.407Z,10.70
2018-09-28T19:03:55.939Z,9.60
2018-09-28T19:06:24.478Z,9.97
2018-09-28T19:08:54.050Z,10.80
2018-09-28T19:11:22.582Z,11.35
2018-09-28T19:13:51.343Z,10.23
2018-09-28T19:16:19.908Z,10.03
2018-09-28T19:18:48.562Z,10.03
2018-09-28T19:21:17.545Z,11.33
2018-09-28T19:23:46.069Z,12.40
2018-09-28T19:31:11.919Z,11.30
2018-09-28T19:33:40.427Z,12.23
2018-09-28T19:36:08.938Z,12.40
2018-09-28T19:38:37.562Z,12.70
2018-09-28T19:41:06.219Z,13.10
2018-09-28T19:43:34.878Z,11.87
2018-09-28T19:46:04.350Z,13.00
2018-09-28T19:48:34.074Z,12.10
2018-09-28T19:51:02.655Z,12.93
2018-09-28T19:53:31.259Z,13.40
2018-09-28T19:55:59.758Z,13.90
2018-09-28T19:58:28.286Z,13.90
2018-09-28T20:00:56.839Z,12.90
2018-09-28T20:03:25.359Z,13.20
2018-09-28T20:05:54.424Z,12.83
2018-09-28T20:08:23.063Z,12.67
2018-09-28T20:10:52.814Z,14.20
2018-09-28T20:13:21.539Z,13.95
2018-09-28T20:15:50.708Z,14.30
2018-09-28T20:18:19.606Z,14.37
2018-09-28T20:20:48.232Z,15.30
2018-09-28T20:23:18.846Z,16.16
2018-09-28T20:25:47.346Z,15.47
2018-09-28T20:33:09.240Z,16.27
2018-09-28T20:35:38.012Z,15.80
2018-09-28T20:38:06.802Z,17.98
2018-09-28T20:40:36.108Z,17.17
2018-09-28T20:43:04.728Z,17.50
2018-09-28T20:45:34.659Z,16.70
2018-09-28T20:48:03.199Z,18.20
2018-09-28T20:50:31.740Z,17.55
2018-09-28T20:53:00.349Z,18.20
2018-09-28T20:55:29.112Z,17.00
2018-09-28T20:57:57.593Z,17.80
2018-09-28T21:00:26.432Z,18.00
2018-09-28T21:02:54.995Z,16.83
2018-09-28T21:05:23.632Z,16.40
2018-09-28T21:07:52.241Z,16.70
2018-09-28T21:10:20.755Z,15.63
2018-09-28T21:12:50.001Z,14.80
2018-09-28T21:15:18.521Z,14.75
2018-09-28T21:17:47.594Z,14.00
2018-09-28T21:20:17.482Z,15.10
2018-09-28T21:22:45.982Z,12.50
2018-09-28T21:30:10.234Z,10.63
2018-09-28T21:32:38.766Z,11.40
2018-09-28T21:35:07.316Z,10.63
2018-09-28T21:37:35.892Z,10.00
2018-09-28T21:40:04.462Z,10.00
2018-09-28T21:42:32.929Z,9.70
2018-09-28T21:45:01.486Z,8.10
2018-09-28T21:47:30.493Z,9.80
2018-09-28T21:49:58.981Z,7.90
2018-09-28T21:52:27.519Z,7.80
2018-09-28T21:54:56.036Z,7.90
2018-09-28T21:57:24.546Z,7.03
2018-09-28T21:59:53.112Z,7.00
2018-09-28T22:02:21.648Z,6.78
2018-09-28T22:04:50.256Z,7.70
2018-09-28T22:07:18.685Z,7.33
2018-09-28T22:09:47.159Z,7.40
2018-09-28T22:12:17.435Z,7.30
2018-09-28T22:14:46.539Z,7.07
2018-09-28T22:22:15.653Z,7.00
2018-09-28T22:24:44.137Z,7.40
2018-09-28T22:27:12.630Z,8.37
2018-09-28T22:29:41.149Z,7.83
2018-09-28T22:32:09.644Z,7.87
2018-09-28T22:34:38.599Z,8.60
2018-09-28T22:37:07.157Z,8.70
2018-09-28T22:39:35.687Z,9.20
2018-09-28T22:42:04.187Z,7.50
2018-09-28T22:44:33.222Z,8.70
2018-09-28T22:47:01.723Z,8.40
2018-09-28T22:49:30.186Z,9.43
2018-09-28T22:51:58.728Z,9.07
2018-09-28T22:54:27.259Z,9.37
2018-09-28T22:56:55.782Z,9.90
2018-09-28T22:59:24.307Z,9.77
2018-09-28T23:01:52.801Z,10.73
2018-09-28T23:04:21.286Z,9.73
2018-09-28T23:06:50.169Z,10.60
2018-09-28T23:09:18.644Z,10.13
2018-09-28T23:11:47.134Z,10.83
2018-09-28T23:14:17.419Z,10.58
2018-09-28T23:16:46.686Z,11.17
2018-09-28T23:24:14.814Z,11.20
2018-09-28T23:26:43.792Z,10.53
2018-09-28T23:29:12.505Z,11.10
2018-09-28T23:31:41.205Z,10.83
2018-09-28T23:34:09.981Z,10.50
2018-09-28T23:36:38.656Z,10.80
2018-09-28T23:39:09.032Z,11.53
2018-09-28T23:41:37.967Z,12.40
2018-09-28T23:44:07.048Z,12.82
2018-09-28T23:46:35.615Z,12.53
2018-09-28T23:49:04.469Z,12.70
2018-09-28T23:51:33.054Z,12.05
2018-09-28T23:54:01.651Z,14.50
2018-09-28T23:56:30.145Z,15.90
2018-09-28T23:58:58.673Z,16.03
